sensor_id;sensor_type;location;lat;lon;timestamp;P1;durP1;ratioP1;P2;durP2;ratioP2
42124;SDS011;27787;44.594;11.046;2023-07-24T00:00:20;25.77;;;10.70;;
42124;SDS011;27787;44.594;11.046;2023-07-24T00:03:05;25.77;;;11.00;;
42124;SDS011;27787;44.594;11.046;2023-07-24T00:05:49;23.25;;;11.15;;
42124;SDS011;27787;44.594;11.046;2023-07-24T00:08:34;20.20;;;10.20;;
42124;SDS011;27787;44.594;11.046;2023-07-24T00:11:18;25.80;;;11.27;;
42124;SDS011;27787;44.594;11.046;2023-07-24T00:14:02;23.02;;;10.57;;
42124;SDS011;27787;44.594;11.046;2023-07-24T00:16:47;26.25;;;11.10;;
42124;SDS011;27787;44.594;11.046;2023-07-24T00:19:30;21.58;;;10.98;;
42124;SDS011;27787;44.594;11.046;2023-07-24T00:22:14;22.33;;;11.15;;
42124;SDS011;27787;44.594;11.046;2023-07-24T00:24:59;25.20;;;11.48;;
42124;SDS011;27787;44.594;11.046;2023-07-24T00:27:43;23.30;;;11.10;;
42124;SDS011;27787;44.594;11.046;2023-07-24T00:30:27;21.60;;;10.68;;
42124;SDS011;27787;44.594;11.046;2023-07-24T00:33:11;24.52;;;11.25;;
42124;SDS011;27787;44.594;11.046;2023-07-24T00:35:56;20.95;;;10.52;;
42124;SDS011;27787;44.594;11.046;2023-07-24T00:38:41;23.48;;;10.73;;
42124;SDS011;27787;44.594;11.046;2023-07-24T00:41:26;22.45;;;11.07;;
42124;SDS011;27787;44.594;11.046;2023-07-24T00:44:11;24.00;;;11.75;;
42124;SDS011;27787;44.594;11.046;2023-07-24T00:46:56;24.13;;;11.65;;
42124;SDS011;27787;44.594;11.046;2023-07-24T00:49:40;24.75;;;11.27;;
42124;SDS011;27787;44.594;11.046;2023-07-24T00:52:25;21.40;;;10.73;;
42124;SDS011;27787;44.594;11.046;2023-07-24T00:55:10;24.90;;;10.90;;
42124;SDS011;27787;44.594;11.046;2023-07-24T00:57:59;24.90;;;11.88;;
42124;SDS011;27787;44.594;11.046;2023-07-24T01:00:44;20.73;;;10.43;;
42124;SDS011;27787;44.594;11.046;2023-07-24T01:03:31;26.17;;;12.10;;
42124;SDS011;27787;44.594;11.046;2023-07-24T01:06:18;23.58;;;11.02;;
42124;SDS011;27787;44.594;11.046;2023-07-24T01:09:02;28.55;;;12.23;;
42124;SDS011;27787;44.594;11.046;2023-07-24T01:11:47;23.48;;;11.82;;
42124;SDS011;27787;44.594;11.046;2023-07-24T01:14:44;28.23;;;10.70;;
42124;SDS011;27787;44.594;11.046;2023-07-24T01:17:33;23.90;;;11.38;;
42124;SDS011;27787;44.594;11.046;2023-07-24T01:20:26;25.27;;;11.10;;
42124;SDS011;27787;44.594;11.046;2023-07-24T01:26:22;22.50;;;11.45;;
42124;SDS011;27787;44.594;11.046;2023-07-24T01:29:08;23.58;;;11.45;;
42124;SDS011;27787;44.594;11.046;2023-07-24T01:31:53;23.67;;;11.60;;
42124;SDS011;27787;44.594;11.046;2023-07-24T01:34:37;26.20;;;11.75;;
42124;SDS011;27787;44.594;11.046;2023-07-24T01:37:21;24.63;;;11.68;;
42124;SDS011;27787;44.594;11.046;2023-07-24T01:40:07;33.13;;;11.65;;
42124;SDS011;27787;44.594;11.046;2023-07-24T01:42:53;23.38;;;11.38;;
42124;SDS011;27787;44.594;11.046;2023-07-24T01:45:37;27.80;;;11.32;;
42124;SDS011;27787;44.594;11.046;2023-07-24T01:48:22;27.88;;;12.05;;
42124;SDS011;27787;44.594;11.046;2023-07-24T01:51:06;27.17;;;11.27;;
42124;SDS011;27787;44.594;11.046;2023-07-24T01:53:50;24.48;;;11.95;;
42124;SDS011;27787;44.594;11.046;2023-07-24T01:56:35;24.10;;;11.65;;
42124;SDS011;27787;44.594;11.046;2023-07-24T01:59:20;21.55;;;12.23;;
42124;SDS011;27787;44.594;11.046;2023-07-24T02:02:04;20.85;;;11.82;;
42124;SDS011;27787;44.594;11.046;2023-07-24T02:04:49;24.60;;;12.20;;
42124;SDS011;27787;44.594;11.046;2023-07-24T02:07:34;22.17;;;11.00;;
42124;SDS011;27787;44.594;11.046;2023-07-24T02:10:18;24.27;;;11.43;;
42124;SDS011;27787;44.594;11.046;2023-07-24T02:13:03;25.10;;;12.07;;
42124;SDS011;27787;44.594;11.046;2023-07-24T02:15:47;25.70;;;11.93;;
42124;SDS011;27787;44.594;11.046;2023-07-24T02:18:31;25.50;;;12.27;;
42124;SDS011;27787;44.594;11.046;2023-07-24T02:21:16;25.27;;;11.93;;
42124;SDS011;27787;44.594;11.046;2023-07-24T02:24:00;24.10;;;11.75;;
42124;SDS011;27787;44.594;11.046;2023-07-24T02:26:44;25.35;;;11.68;;
42124;SDS011;27787;44.594;11.046;2023-07-24T02:29:28;27.92;;;11.45;;
42124;SDS011;27787;44.594;11.046;2023-07-24T02:32:12;23.55;;;11.90;;
42124;SDS011;27787;44.594;11.046;2023-07-24T02:34:56;21.55;;;10.52;;
42124;SDS011;27787;44.594;11.046;2023-07-24T02:37:40;22.45;;;10.55;;
42124;SDS011;27787;44.594;11.046;2023-07-24T02:40:28;30.98;;;11.00;;
42124;SDS011;27787;44.594;11.046;2023-07-24T02:43:12;24.05;;;10.45;;
42124;SDS011;27787;44.594;11.046;2023-07-24T02:46:00;25.63;;;10.80;;
42124;SDS011;27787;44.594;11.046;2023-07-24T02:48:45;20.98;;;10.95;;
42124;SDS011;27787;44.594;11.046;2023-07-24T02:51:29;27.40;;;12.23;;
42124;SDS011;27787;44.594;11.046;2023-07-24T02:54:14;22.90;;;9.90;;
42124;SDS011;27787;44.594;11.046;2023-07-24T02:56:58;20.90;;;10.38;;
42124;SDS011;27787;44.594;11.046;2023-07-24T02:59:42;21.98;;;10.55;;
42124;SDS011;27787;44.594;11.046;2023-07-24T03:02:26;22.52;;;10.65;;
42124;SDS011;27787;44.594;11.046;2023-07-24T03:05:11;21.85;;;10.70;;
42124;SDS011;27787;44.594;11.046;2023-07-24T03:07:55;22.40;;;10.57;;
42124;SDS011;27787;44.594;11.046;2023-07-24T03:10:40;27.63;;;11.00;;
42124;SDS011;27787;44.594;11.046;2023-07-24T03:13:25;21.38;;;11.38;;
42124;SDS011;27787;44.594;11.046;2023-07-24T03:16:09;24.10;;;11.45;;
42124;SDS011;27787;44.594;11.046;2023-07-24T03:18:54;20.50;;;10.18;;
42124;SDS011;27787;44.594;11.046;2023-07-24T03:21:38;24.45;;;11.23;;
42124;SDS011;27787;44.594;11.046;2023-07-24T03:24:22;27.73;;;11.80;;
42124;SDS011;27787;44.594;11.046;2023-07-24T03:27:07;22.05;;;11.20;;
42124;SDS011;27787;44.594;11.046;2023-07-24T03:29:51;25.15;;;10.88;;
42124;SDS011;27787;44.594;11.046;2023-07-24T03:32:36;23.80;;;11.57;;
42124;SDS011;27787;44.594;11.046;2023-07-24T03:35:21;22.30;;;10.65;;
42124;SDS011;27787;44.594;11.046;2023-07-24T03:38:05;22.50;;;10.95;;
42124;SDS011;27787;44.594;11.046;2023-07-24T03:40:49;24.93;;;10.70;;
42124;SDS011;27787;44.594;11.046;2023-07-24T03:43:34;23.88;;;11.63;;
42124;SDS011;27787;44.594;11.046;2023-07-24T03:46:18;24.23;;;11.10;;
42124;SDS011;27787;44.594;11.046;2023-07-24T03:49:03;30.23;;;12.07;;
42124;SDS011;27787;44.594;11.046;2023-07-24T03:51:46;21.65;;;11.27;;
42124;SDS011;27787;44.594;11.046;2023-07-24T03:54:31;25.08;;;11.75;;
42124;SDS011;27787;44.594;11.046;2023-07-24T03:57:15;22.75;;;11.20;;
42124;SDS011;27787;44.594;11.046;2023-07-24T03:59:59;23.80;;;10.57;;
42124;SDS011;27787;44.594;11.046;2023-07-24T04:02:43;23.43;;;10.77;;
42124;SDS011;27787;44.594;11.046;2023-07-24T04:05:27;24.57;;;10.73;;
42124;SDS011;27787;44.594;11.046;2023-07-24T04:08:11;21.30;;;10.00;;
42124;SDS011;27787;44.594;11.046;2023-07-24T04:10:55;21.77;;;10.23;;
42124;SDS011;27787;44.594;11.046;2023-07-24T04:13:42;24.90;;;11.23;;
42124;SDS011;27787;44.594;11.046;2023-07-24T04:16:27;28.05;;;11.18;;
42124;SDS011;27787;44.594;11.046;2023-07-24T04:19:11;28.20;;;11.55;;
42124;SDS011;27787;44.594;11.046;2023-07-24T04:21:55;24.08;;;11.25;;
42124;SDS011;27787;44.594;11.046;2023-07-24T04:24:39;28.15;;;12.27;;
42124;SDS011;27787;44.594;11.046;2023-07-24T04:27:24;29.20;;;11.57;;
42124;SDS011;27787;44.594;11.046;2023-07-24T04:30:08;24.95;;;11.82;;
42124;SDS011;27787;44.594;11.046;2023-07-24T04:32:52;26.03;;;11.37;;
42124;SDS011;27787;44.594;11.046;2023-07-24T04:35:36;21.95;;;10.25;;
42124;SDS011;27787;44.594;11.046;2023-07-24T04:38:21;24.33;;;11.60;;
42124;SDS011;27787;44.594;11.046;2023-07-24T04:41:05;20.30;;;10.57;;
42124;SDS011;27787;44.594;11.046;2023-07-24T04:43:49;27.15;;;11.18;;
42124;SDS011;27787;44.594;11.046;2023-07-24T04:46:33;25.48;;;11.63;;
42124;SDS011;27787;44.594;11.046;2023-07-24T04:49:17;28.33;;;12.57;;
42124;SDS011;27787;44.594;11.046;2023-07-24T04:52:01;27.92;;;12.48;;
42124;SDS011;27787;44.594;11.046;2023-07-24T04:54:46;24.60;;;12.33;;
42124;SDS011;27787;44.594;11.046;2023-07-24T04:57:30;25.30;;;12.63;;
42124;SDS011;27787;44.594;11.046;2023-07-24T05:00:14;25.48;;;12.10;;
42124;SDS011;27787;44.594;11.046;2023-07-24T05:02:59;25.83;;;11.95;;
42124;SDS011;27787;44.594;11.046;2023-07-24T05:05:43;28.00;;;12.40;;
42124;SDS011;27787;44.594;11.046;2023-07-24T05:08:31;26.67;;;12.32;;
42124;SDS011;27787;44.594;11.046;2023-07-24T05:11:15;25.38;;;11.80;;
42124;SDS011;27787;44.594;11.046;2023-07-24T05:13:59;26.10;;;12.80;;
42124;SDS011;27787;44.594;11.046;2023-07-24T05:16:43;29.85;;;12.48;;
42124;SDS011;27787;44.594;11.046;2023-07-24T05:19:27;32.33;;;13.13;;
42124;SDS011;27787;44.594;11.046;2023-07-24T05:22:11;24.85;;;11.75;;
42124;SDS011;27787;44.594;11.046;2023-07-24T05:24:55;31.70;;;13.20;;
42124;SDS011;27787;44.594;11.046;2023-07-24T05:27:39;28.08;;;12.23;;
42124;SDS011;27787;44.594;11.046;2023-07-24T05:30:23;24.88;;;12.27;;
42124;SDS011;27787;44.594;11.046;2023-07-24T05:33:08;31.93;;;12.73;;
42124;SDS011;27787;44.594;11.046;2023-07-24T05:35:52;29.73;;;12.40;;
42124;SDS011;27787;44.594;11.046;2023-07-24T05:38:42;29.70;;;12.27;;
42124;SDS011;27787;44.594;11.046;2023-07-24T05:41:26;34.10;;;12.85;;
42124;SDS011;27787;44.594;11.046;2023-07-24T05:44:10;31.48;;;12.18;;
42124;SDS011;27787;44.594;11.046;2023-07-24T05:46:54;27.77;;;13.43;;
42124;SDS011;27787;44.594;11.046;2023-07-24T05:49:38;30.40;;;12.45;;
42124;SDS011;27787;44.594;11.046;2023-07-24T05:52:22;26.92;;;12.43;;
42124;SDS011;27787;44.594;11.046;2023-07-24T05:55:06;28.20;;;11.88;;
42124;SDS011;27787;44.594;11.046;2023-07-24T05:57:50;23.60;;;11.80;;
42124;SDS011;27787;44.594;11.046;2023-07-24T06:00:34;25.02;;;11.48;;
42124;SDS011;27787;44.594;11.046;2023-07-24T06:03:20;22.80;;;10.82;;
42124;SDS011;27787;44.594;11.046;2023-07-24T06:06:05;22.75;;;10.85;;
42124;SDS011;27787;44.594;11.046;2023-07-24T06:08:49;21.88;;;11.65;;
42124;SDS011;27787;44.594;11.046;2023-07-24T06:11:34;24.60;;;11.38;;
42124;SDS011;27787;44.594;11.046;2023-07-24T06:14:19;22.13;;;10.25;;
42124;SDS011;27787;44.594;11.046;2023-07-24T06:17:03;23.55;;;10.25;;
42124;SDS011;27787;44.594;11.046;2023-07-24T06:19:47;24.13;;;10.70;;
42124;SDS011;27787;44.594;11.046;2023-07-24T06:22:32;23.23;;;10.93;;
42124;SDS011;27787;44.594;11.046;2023-07-24T06:25:16;24.70;;;10.23;;
42124;SDS011;27787;44.594;11.046;2023-07-24T06:28:00;30.17;;;10.60;;
42124;SDS011;27787;44.594;11.046;2023-07-24T06:30:44;21.38;;;10.52;;
42124;SDS011;27787;44.594;11.046;2023-07-24T06:33:28;22.05;;;10.57;;
42124;SDS011;27787;44.594;11.046;2023-07-24T06:36:12;26.42;;;10.57;;
42124;SDS011;27787;44.594;11.046;2023-07-24T06:38:57;23.10;;;11.02;;
42124;SDS011;27787;44.594;11.046;2023-07-24T06:41:41;22.35;;;10.55;;
42124;SDS011;27787;44.594;11.046;2023-07-24T06:44:25;25.03;;;12.50;;
42124;SDS011;27787;44.594;11.046;2023-07-24T06:47:09;33.35;;;11.45;;
42124;SDS011;27787;44.594;11.046;2023-07-24T06:49:53;25.23;;;11.00;;
42124;SDS011;27787;44.594;11.046;2023-07-24T06:52:37;27.48;;;10.57;;
42124;SDS011;27787;44.594;11.046;2023-07-24T06:55:21;25.10;;;10.67;;
42124;SDS011;27787;44.594;11.046;2023-07-24T06:58:05;24.08;;;10.43;;
42124;SDS011;27787;44.594;11.046;2023-07-24T07:00:50;24.65;;;11.27;;
42124;SDS011;27787;44.594;11.046;2023-07-24T07:03:38;24.20;;;11.13;;
42124;SDS011;27787;44.594;11.046;2023-07-24T07:06:22;23.67;;;11.38;;
42124;SDS011;27787;44.594;11.046;2023-07-24T07:09:06;26.25;;;11.45;;
42124;SDS011;27787;44.594;11.046;2023-07-24T07:11:50;26.38;;;11.73;;
42124;SDS011;27787;44.594;11.046;2023-07-24T07:14:34;34.57;;;12.77;;
42124;SDS011;27787;44.594;11.046;2023-07-24T07:17:19;26.30;;;11.50;;
42124;SDS011;27787;44.594;11.046;2023-07-24T07:20:03;24.15;;;12.02;;
42124;SDS011;27787;44.594;11.046;2023-07-24T07:22:47;25.58;;;11.85;;
42124;SDS011;27787;44.594;11.046;2023-07-24T07:25:32;27.98;;;11.05;;
42124;SDS011;27787;44.594;11.046;2023-07-24T07:28:16;22.80;;;10.18;;
42124;SDS011;27787;44.594;11.046;2023-07-24T07:31:01;23.55;;;11.07;;
42124;SDS011;27787;44.594;11.046;2023-07-24T07:33:46;24.17;;;10.43;;
42124;SDS011;27787;44.594;11.046;2023-07-24T07:36:30;23.55;;;11.05;;
42124;SDS011;27787;44.594;11.046;2023-07-24T07:39:14;24.10;;;11.25;;
42124;SDS011;27787;44.594;11.046;2023-07-24T07:41:58;22.48;;;10.43;;
42124;SDS011;27787;44.594;11.046;2023-07-24T07:44:42;22.33;;;10.20;;
42124;SDS011;27787;44.594;11.046;2023-07-24T07:47:26;26.90;;;14.18;;
42124;SDS011;27787;44.594;11.046;2023-07-24T07:50:11;33.72;;;12.60;;
42124;SDS011;27787;44.594;11.046;2023-07-24T07:52:55;28.27;;;13.93;;
42124;SDS011;27787;44.594;11.046;2023-07-24T07:55:39;27.55;;;13.68;;
42124;SDS011;27787;44.594;11.046;2023-07-24T07:58:23;29.30;;;13.30;;
42124;SDS011;27787;44.594;11.046;2023-07-24T08:01:08;27.55;;;13.55;;
42124;SDS011;27787;44.594;11.046;2023-07-24T08:03:52;30.63;;;13.82;;
42124;SDS011;27787;44.594;11.046;2023-07-24T08:06:36;28.83;;;13.50;;
42124;SDS011;27787;44.594;11.046;2023-07-24T08:09:20;31.33;;;13.63;;
42124;SDS011;27787;44.594;11.046;2023-07-24T08:12:05;47.33;;;15.63;;
42124;SDS011;27787;44.594;11.046;2023-07-24T08:14:49;29.17;;;14.70;;
42124;SDS011;27787;44.594;11.046;2023-07-24T08:17:33;24.52;;;12.60;;
42124;SDS011;27787;44.594;11.046;2023-07-24T08:20:17;23.77;;;12.15;;
42124;SDS011;27787;44.594;11.046;2023-07-24T08:23:02;25.33;;;13.03;;
42124;SDS011;27787;44.594;11.046;2023-07-24T08:25:55;26.20;;;10.95;;
42124;SDS011;27787;44.594;11.046;2023-07-24T08:28:39;22.52;;;10.48;;
42124;SDS011;27787;44.594;11.046;2023-07-24T08:31:26;21.75;;;11.25;;
42124;SDS011;27787;44.594;11.046;2023-07-24T08:34:10;24.73;;;10.63;;
42124;SDS011;27787;44.594;11.046;2023-07-24T08:36:54;34.53;;;12.18;;
42124;SDS011;27787;44.594;11.046;2023-07-24T08:39:38;25.58;;;11.82;;
42124;SDS011;27787;44.594;11.046;2023-07-24T08:42:22;25.23;;;10.77;;
42124;SDS011;27787;44.594;11.046;2023-07-24T08:45:13;23.98;;;11.20;;
42124;SDS011;27787;44.594;11.046;2023-07-24T08:47:57;18.27;;;10.48;;
42124;SDS011;27787;44.594;11.046;2023-07-24T08:50:42;22.20;;;9.88;;
42124;SDS011;27787;44.594;11.046;2023-07-24T08:53:28;23.88;;;11.77;;
42124;SDS011;27787;44.594;11.046;2023-07-24T08:56:17;29.17;;;13.73;;
42124;SDS011;27787;44.594;11.046;2023-07-24T08:59:02;27.83;;;12.73;;
42124;SDS011;27787;44.594;11.046;2023-07-24T09:01:46;24.08;;;12.90;;
42124;SDS011;27787;44.594;11.046;2023-07-24T09:04:30;25.90;;;12.68;;
42124;SDS011;27787;44.594;11.046;2023-07-24T09:07:14;23.67;;;11.85;;
42124;SDS011;27787;44.594;11.046;2023-07-24T09:09:59;29.27;;;12.38;;
42124;SDS011;27787;44.594;11.046;2023-07-24T09:12:43;22.33;;;12.25;;
42124;SDS011;27787;44.594;11.046;2023-07-24T09:15:27;22.42;;;11.35;;
42124;SDS011;27787;44.594;11.046;2023-07-24T09:18:11;24.92;;;13.35;;
42124;SDS011;27787;44.594;11.046;2023-07-24T09:20:56;23.60;;;12.75;;
42124;SDS011;27787;44.594;11.046;2023-07-24T09:23:40;25.02;;;12.70;;
42124;SDS011;27787;44.594;11.046;2023-07-24T09:26:27;26.30;;;13.38;;
42124;SDS011;27787;44.594;11.046;2023-07-24T09:29:11;26.40;;;14.10;;
42124;SDS011;27787;44.594;11.046;2023-07-24T09:31:55;22.48;;;13.43;;
42124;SDS011;27787;44.594;11.046;2023-07-24T09:34:43;32.92;;;14.02;;
42124;SDS011;27787;44.594;11.046;2023-07-24T09:37:28;35.95;;;14.98;;
42124;SDS011;27787;44.594;11.046;2023-07-24T09:40:15;33.80;;;15.88;;
42124;SDS011;27787;44.594;11.046;2023-07-24T09:42:59;35.35;;;15.38;;
42124;SDS011;27787;44.594;11.046;2023-07-24T09:45:44;26.60;;;14.50;;
42124;SDS011;27787;44.594;11.046;2023-07-24T09:48:29;24.05;;;14.57;;
42124;SDS011;27787;44.594;11.046;2023-07-24T09:51:14;27.38;;;14.10;;
42124;SDS011;27787;44.594;11.046;2023-07-24T09:54:21;31.33;;;16.08;;
42124;SDS011;27787;44.594;11.046;2023-07-24T09:57:09;26.20;;;15.02;;
42124;SDS011;27787;44.594;11.046;2023-07-24T09:59:54;31.48;;;16.02;;
42124;SDS011;27787;44.594;11.046;2023-07-24T10:02:40;31.67;;;15.45;;
42124;SDS011;27787;44.594;11.046;2023-07-24T10:05:25;30.90;;;16.27;;
42124;SDS011;27787;44.594;11.046;2023-07-24T10:08:10;31.75;;;15.45;;
42124;SDS011;27787;44.594;11.046;2023-07-24T10:10:54;31.70;;;15.88;;
42124;SDS011;27787;44.594;11.046;2023-07-24T10:13:39;33.42;;;15.40;;
42124;SDS011;27787;44.594;11.046;2023-07-24T10:16:24;27.67;;;14.52;;
42124;SDS011;27787;44.594;11.046;2023-07-24T10:19:13;23.27;;;13.30;;
42124;SDS011;27787;44.594;11.046;2023-07-24T10:21:59;25.25;;;13.32;;
42124;SDS011;27787;44.594;11.046;2023-07-24T10:24:43;27.80;;;13.10;;
42124;SDS011;27787;44.594;11.046;2023-07-24T10:27:27;29.30;;;15.15;;
42124;SDS011;27787;44.594;11.046;2023-07-24T10:30:12;28.30;;;13.45;;
42124;SDS011;27787;44.594;11.046;2023-07-24T10:36:03;30.67;;;13.02;;
42124;SDS011;27787;44.594;11.046;2023-07-24T10:38:54;24.95;;;12.40;;
42124;SDS011;27787;44.594;11.046;2023-07-24T10:41:39;30.85;;;15.93;;
42124;SDS011;27787;44.594;11.046;2023-07-24T10:44:30;25.92;;;13.75;;
42124;SDS011;27787;44.594;11.046;2023-07-24T10:47:15;25.33;;;13.32;;
42124;SDS011;27787;44.594;11.046;2023-07-24T10:49:59;28.85;;;13.40;;
42124;SDS011;27787;44.594;11.046;2023-07-24T10:52:46;34.63;;;16.05;;
42124;SDS011;27787;44.594;11.046;2023-07-24T10:55:31;26.10;;;13.50;;
42124;SDS011;27787;44.594;11.046;2023-07-24T10:58:15;20.30;;;12.05;;
42124;SDS011;27787;44.594;11.046;2023-07-24T11:00:59;23.60;;;12.40;;
42124;SDS011;27787;44.594;11.046;2023-07-24T11:03:44;22.80;;;11.43;;
42124;SDS011;27787;44.594;11.046;2023-07-24T11:06:28;21.30;;;11.32;;
42124;SDS011;27787;44.594;11.046;2023-07-24T11:09:13;23.95;;;11.00;;
42124;SDS011;27787;44.594;11.046;2023-07-24T11:11:57;23.47;;;12.13;;
42124;SDS011;27787;44.594;11.046;2023-07-24T11:14:52;24.92;;;12.77;;
42124;SDS011;27787;44.594;11.046;2023-07-24T11:17:40;23.95;;;12.23;;
42124;SDS011;27787;44.594;11.046;2023-07-24T11:20:25;26.27;;;12.40;;
42124;SDS011;27787;44.594;11.046;2023-07-24T11:23:10;23.90;;;13.00;;
42124;SDS011;27787;44.594;11.046;2023-07-24T11:28:39;26.10;;;12.55;;
42124;SDS011;27787;44.594;11.046;2023-07-24T11:31:24;22.03;;;12.03;;
42124;SDS011;27787;44.594;11.046;2023-07-24T11:34:08;24.70;;;12.47;;
42124;SDS011;27787;44.594;11.046;2023-07-24T11:36:53;25.83;;;13.88;;
42124;SDS011;27787;44.594;11.046;2023-07-24T11:39:37;24.52;;;13.32;;
42124;SDS011;27787;44.594;11.046;2023-07-24T11:42:24;21.67;;;11.77;;
42124;SDS011;27787;44.594;11.046;2023-07-24T11:45:08;25.50;;;12.25;;
42124;SDS011;27787;44.594;11.046;2023-07-24T11:47:56;22.45;;;12.20;;
42124;SDS011;27787;44.594;11.046;2023-07-24T11:50:47;23.85;;;11.65;;
42124;SDS011;27787;44.594;11.046;2023-07-24T11:53:32;25.15;;;12.50;;
42124;SDS011;27787;44.594;11.046;2023-07-24T11:56:17;27.50;;;14.15;;
42124;SDS011;27787;44.594;11.046;2023-07-24T11:59:13;21.42;;;11.95;;
42124;SDS011;27787;44.594;11.046;2023-07-24T12:01:57;29.27;;;12.60;;
42124;SDS011;27787;44.594;11.046;2023-07-24T12:04:41;25.38;;;11.93;;
42124;SDS011;27787;44.594;11.046;2023-07-24T12:07:30;21.83;;;11.48;;
42124;SDS011;27787;44.594;11.046;2023-07-24T12:10:24;18.20;;;11.10;;
42124;SDS011;27787;44.594;11.046;2023-07-24T12:13:11;22.33;;;11.93;;
42124;SDS011;27787;44.594;11.046;2023-07-24T12:15:55;19.25;;;10.60;;
42124;SDS011;27787;44.594;11.046;2023-07-24T12:18:39;20.47;;;11.03;;
42124;SDS011;27787;44.594;11.046;2023-07-24T12:21:24;22.02;;;10.95;;
42124;SDS011;27787;44.594;11.046;2023-07-24T12:24:08;19.40;;;10.57;;
42124;SDS011;27787;44.594;11.046;2023-07-24T12:26:52;17.65;;;9.75;;
42124;SDS011;27787;44.594;11.046;2023-07-24T12:29:36;19.88;;;10.18;;
42124;SDS011;27787;44.594;11.046;2023-07-24T12:32:21;21.70;;;10.35;;
42124;SDS011;27787;44.594;11.046;2023-07-24T12:35:07;18.10;;;9.05;;
42124;SDS011;27787;44.594;11.046;2023-07-24T12:37:52;18.73;;;9.43;;
42124;SDS011;27787;44.594;11.046;2023-07-24T12:40:36;19.25;;;9.48;;
42124;SDS011;27787;44.594;11.046;2023-07-24T12:43:20;16.63;;;8.87;;
42124;SDS011;27787;44.594;11.046;2023-07-24T12:46:04;21.17;;;10.25;;
42124;SDS011;27787;44.594;11.046;2023-07-24T12:48:48;17.90;;;8.98;;
42124;SDS011;27787;44.594;11.046;2023-07-24T12:51:32;17.33;;;8.77;;
42124;SDS011;27787;44.594;11.046;2023-07-24T12:54:17;18.55;;;9.23;;
42124;SDS011;27787;44.594;11.046;2023-07-24T12:57:03;24.40;;;10.18;;
42124;SDS011;27787;44.594;11.046;2023-07-24T12:59:47;21.00;;;10.27;;
42124;SDS011;27787;44.594;11.046;2023-07-24T13:02:32;22.88;;;10.00;;
42124;SDS011;27787;44.594;11.046;2023-07-24T13:05:16;21.17;;;10.27;;
42124;SDS011;27787;44.594;11.046;2023-07-24T13:08:00;19.65;;;9.80;;
42124;SDS011;27787;44.594;11.046;2023-07-24T13:10:44;21.10;;;9.63;;
42124;SDS011;27787;44.594;11.046;2023-07-24T13:13:28;16.52;;;9.20;;
42124;SDS011;27787;44.594;11.046;2023-07-24T13:16:14;17.98;;;8.82;;
42124;SDS011;27787;44.594;11.046;2023-07-24T13:18:59;19.45;;;9.27;;
42124;SDS011;27787;44.594;11.046;2023-07-24T13:21:43;19.27;;;9.05;;
42124;SDS011;27787;44.594;11.046;2023-07-24T13:24:29;18.75;;;9.38;;
42124;SDS011;27787;44.594;11.046;2023-07-24T13:27:13;19.97;;;9.67;;
42124;SDS011;27787;44.594;11.046;2023-07-24T13:29:58;21.75;;;8.75;;
42124;SDS011;27787;44.594;11.046;2023-07-24T13:32:43;17.25;;;7.93;;
42124;SDS011;27787;44.594;11.046;2023-07-24T13:35:27;18.60;;;8.90;;
42124;SDS011;27787;44.594;11.046;2023-07-24T13:38:11;22.27;;;9.18;;
42124;SDS011;27787;44.594;11.046;2023-07-24T13:40:55;16.52;;;9.00;;
42124;SDS011;27787;44.594;11.046;2023-07-24T13:43:39;15.87;;;8.07;;
42124;SDS011;27787;44.594;11.046;2023-07-24T13:46:24;14.13;;;7.60;;
42124;SDS011;27787;44.594;11.046;2023-07-24T13:49:08;17.97;;;8.00;;
42124;SDS011;27787;44.594;11.046;2023-07-24T13:51:52;16.17;;;8.05;;
42124;SDS011;27787;44.594;11.046;2023-07-24T13:54:37;17.60;;;8.82;;
42124;SDS011;27787;44.594;11.046;2023-07-24T13:57:21;24.10;;;8.75;;
42124;SDS011;27787;44.594;11.046;2023-07-24T14:00:05;22.40;;;9.90;;
42124;SDS011;27787;44.594;11.046;2023-07-24T14:02:55;14.60;;;9.07;;
42124;SDS011;27787;44.594;11.046;2023-07-24T14:05:40;19.83;;;9.63;;
42124;SDS011;27787;44.594;11.046;2023-07-24T14:08:24;15.52;;;8.77;;
42124;SDS011;27787;44.594;11.046;2023-07-24T14:11:09;16.27;;;8.65;;
42124;SDS011;27787;44.594;11.046;2023-07-24T14:13:53;20.43;;;9.33;;
42124;SDS011;27787;44.594;11.046;2023-07-24T14:16:37;18.00;;;8.52;;
42124;SDS011;27787;44.594;11.046;2023-07-24T14:19:21;18.13;;;9.10;;
42124;SDS011;27787;44.594;11.046;2023-07-24T14:22:07;16.05;;;8.25;;
42124;SDS011;27787;44.594;11.046;2023-07-24T14:24:51;14.27;;;7.70;;
42124;SDS011;27787;44.594;11.046;2023-07-24T14:27:35;18.77;;;7.77;;
42124;SDS011;27787;44.594;11.046;2023-07-24T14:30:19;18.08;;;8.07;;
42124;SDS011;27787;44.594;11.046;2023-07-24T14:33:04;20.23;;;8.60;;
42124;SDS011;27787;44.594;11.046;2023-07-24T14:35:48;17.88;;;8.50;;
42124;SDS011;27787;44.594;11.046;2023-07-24T14:38:32;14.73;;;8.35;;
42124;SDS011;27787;44.594;11.046;2023-07-24T14:41:16;18.47;;;8.30;;
42124;SDS011;27787;44.594;11.046;2023-07-24T14:44:01;19.00;;;8.38;;
42124;SDS011;27787;44.594;11.046;2023-07-24T14:46:45;21.15;;;8.25;;
42124;SDS011;27787;44.594;11.046;2023-07-24T14:49:29;18.73;;;8.35;;
42124;SDS011;27787;44.594;11.046;2023-07-24T14:52:13;14.88;;;7.78;;
42124;SDS011;27787;44.594;11.046;2023-07-24T14:54:57;16.83;;;7.70;;
42124;SDS011;27787;44.594;11.046;2023-07-24T14:57:42;16.95;;;7.05;;
42124;SDS011;27787;44.594;11.046;2023-07-24T15:00:26;14.02;;;6.68;;
42124;SDS011;27787;44.594;11.046;2023-07-24T15:03:11;13.30;;;7.45;;
42124;SDS011;27787;44.594;11.046;2023-07-24T15:05:55;14.93;;;6.88;;
42124;SDS011;27787;44.594;11.046;2023-07-24T15:08:40;16.70;;;6.82;;
42124;SDS011;27787;44.594;11.046;2023-07-24T15:11:23;19.70;;;6.87;;
42124;SDS011;27787;44.594;11.046;2023-07-24T15:14:08;16.35;;;6.88;;
42124;SDS011;27787;44.594;11.046;2023-07-24T15:16:52;13.35;;;6.38;;
42124;SDS011;27787;44.594;11.046;2023-07-24T15:19:36;18.20;;;6.20;;
42124;SDS011;27787;44.594;11.046;2023-07-24T15:22:21;14.95;;;6.65;;
42124;SDS011;27787;44.594;11.046;2023-07-24T15:25:06;13.73;;;6.53;;
42124;SDS011;27787;44.594;11.046;2023-07-24T15:27:51;14.68;;;6.00;;
42124;SDS011;27787;44.594;11.046;2023-07-24T15:30:35;19.00;;;6.57;;
42124;SDS011;27787;44.594;11.046;2023-07-24T15:33:19;14.43;;;6.18;;
42124;SDS011;27787;44.594;11.046;2023-07-24T15:36:03;10.52;;;5.68;;
42124;SDS011;27787;44.594;11.046;2023-07-24T15:38:48;20.23;;;6.72;;
42124;SDS011;27787;44.594;11.046;2023-07-24T15:41:32;18.42;;;5.95;;
42124;SDS011;27787;44.594;11.046;2023-07-24T15:44:16;14.40;;;6.25;;
42124;SDS011;27787;44.594;11.046;2023-07-24T15:47:00;14.05;;;6.05;;
42124;SDS011;27787;44.594;11.046;2023-07-24T15:49:45;14.50;;;5.85;;
42124;SDS011;27787;44.594;11.046;2023-07-24T15:55:13;12.05;;;5.53;;
42124;SDS011;27787;44.594;11.046;2023-07-24T15:57:57;11.85;;;5.88;;
42124;SDS011;27787;44.594;11.046;2023-07-24T16:00:41;13.43;;;6.22;;
42124;SDS011;27787;44.594;11.046;2023-07-24T16:03:26;17.52;;;6.47;;